sensor_id;sensor_type;location;lat;lon;timestamp;temperature;humidity
18777;DHT22;9517;51.174;4.160;2024-03-23T00:52:40;7.60;99.90
18777;DHT22;9517;51.174;4.160;2024-03-23T00:55:06;7.60;99.90
18777;DHT22;9517;51.174;4.160;2024-03-23T00:57:34;7.60;99.90
18777;DHT22;9517;51.174;4.160;2024-03-23T01:00:00;7.50;99.90
18777;DHT22;9517;51.174;4.160;2024-03-23T01:02:27;7.50;99.90
18777;DHT22;9517;51.174;4.160;2024-03-23T01:04:53;7.50;99.90
18777;DHT22;9517;51.174;4.160;2024-03-23T01:07:20;7.40;99.90
18777;DHT22;9517;51.174;4.160;2024-03-23T01:09:47;7.30;99.90
18777;DHT22;9517;51.174;4.160;2024-03-23T01:12:14;7.30;99.90
18777;DHT22;9517;51.174;4.160;2024-03-23T01:14:40;7.20;99.90
18777;DHT22;9517;51.174;4.160;2024-03-23T01:17:07;7.20;99.90
18777;DHT22;9517;51.174;4.160;2024-03-23T01:19:33;7.20;99.90
18777;DHT22;9517;51.174;4.160;2024-03-23T01:22:00;7.20;99.90
18777;DHT22;9517;51.174;4.160;2024-03-23T01:24:26;7.20;99.90
18777;DHT22;9517;51.174;4.160;2024-03-23T01:26:54;7.20;99.90
18777;DHT22;9517;51.174;4.160;2024-03-23T01:29:20;7.20;99.90
18777;DHT22;9517;51.174;4.160;2024-03-23T01:31:47;7.20;99.90
18777;DHT22;9517;51.174;4.160;2024-03-23T01:34:13;7.30;99.90
18777;DHT22;9517;51.174;4.160;2024-03-23T01:36:41;7.30;99.90
18777;DHT22;9517;51.174;4.160;2024-03-23T01:39:06;7.30;99.90
18777;DHT22;9517;51.174;4.160;2024-03-23T01:41:35;7.30;99.90
18777;DHT22;9517;51.174;4.160;2024-03-23T01:44:06;7.40;99.90
18777;DHT22;9517;51.174;4.160;2024-03-23T01:46:33;7.40;99.90
18777;DHT22;9517;51.174;4.160;2024-03-23T01:48:59;7.40;99.90
18777;DHT22;9517;51.174;4.160;2024-03-23T01:51:27;7.50;99.90
18777;DHT22;9517;51.174;4.160;2024-03-23T01:53:54;7.40;99.90
18777;DHT22;9517;51.174;4.160;2024-03-23T01:56:23;7.30;99.90
18777;DHT22;9517;51.174;4.160;2024-03-23T01:58:49;7.30;99.90
18777;DHT22;9517;51.174;4.160;2024-03-23T02:01:17;7.30;99.90
18777;DHT22;9517;51.174;4.160;2024-03-23T02:03:43;7.10;99.90
18777;DHT22;9517;51.174;4.160;2024-03-23T02:06:10;7.10;99.90
18777;DHT22;9517;51.174;4.160;2024-03-23T02:08:36;7.00;99.90
18777;DHT22;9517;51.174;4.160;2024-03-23T02:11:03;7.00;99.90
18777;DHT22;9517;51.174;4.160;2024-03-23T02:13:29;7.00;99.90
18777;DHT22;9517;51.174;4.160;2024-03-23T02:15:57;6.90;99.90
18777;DHT22;9517;51.174;4.160;2024-03-23T02:18:24;6.70;99.90
18777;DHT22;9517;51.174;4.160;2024-03-23T02:20:51;6.60;99.90
18777;DHT22;9517;51.174;4.160;2024-03-23T02:23:19;6.50;99.90
18777;DHT22;9517;51.174;4.160;2024-03-23T02:25:46;6.40;99.90
18777;DHT22;9517;51.174;4.160;2024-03-23T02:28:12;6.50;99.90
18777;DHT22;9517;51.174;4.160;2024-03-23T02:30:39;6.40;99.90
18777;DHT22;9517;51.174;4.160;2024-03-23T02:33:05;6.40;99.90
18777;DHT22;9517;51.174;4.160;2024-03-23T02:35:32;6.40;99.90
18777;DHT22;9517;51.174;4.160;2024-03-23T02:37:58;6.40;99.90
18777;DHT22;9517;51.174;4.160;2024-03-23T02:40:28;6.40;99.90
18777;DHT22;9517;51.174;4.160;2024-03-23T02:42:53;6.30;99.90
18777;DHT22;9517;51.174;4.160;2024-03-23T02:45:20;6.40;99.90
18777;DHT22;9517;51.174;4.160;2024-03-23T02:47:46;6.30;99.90
18777;DHT22;9517;51.174;4.160;2024-03-23T02:50:17;6.30;99.90
18777;DHT22;9517;51.174;4.160;2024-03-23T02:52:43;6.30;99.90
18777;DHT22;9517;51.174;4.160;2024-03-23T02:55:10;6.30;99.90
18777;DHT22;9517;51.174;4.160;2024-03-23T02:57:38;6.30;99.90
18777;DHT22;9517;51.174;4.160;2024-03-23T03:00:06;6.30;99.90
18777;DHT22;9517;51.174;4.160;2024-03-23T03:02:33;6.30;99.90
18777;DHT22;9517;51.174;4.160;2024-03-23T03:05:00;6.40;99.90
18777;DHT22;9517;51.174;4.160;2024-03-23T03:07:26;6.30;99.90
18777;DHT22;9517;51.174;4.160;2024-03-23T03:09:53;6.30;99.90
18777;DHT22;9517;51.174;4.160;2024-03-23T03:12:19;6.30;99.90
18777;DHT22;9517;51.174;4.160;2024-03-23T03:14:47;6.20;99.90
18777;DHT22;9517;51.174;4.160;2024-03-23T03:17:14;6.20;99.90
18777;DHT22;9517;51.174;4.160;2024-03-23T03:19:41;6.10;99.90
18777;DHT22;9517;51.174;4.160;2024-03-23T03:22:07;6.10;99.90
18777;DHT22;9517;51.174;4.160;2024-03-23T03:24:34;6.10;99.90
18777;DHT22;9517;51.174;4.160;2024-03-23T03:27:01;6.10;99.90
18777;DHT22;9517;51.174;4.160;2024-03-23T03:29:29;6.00;99.90
18777;DHT22;9517;51.174;4.160;2024-03-23T03:32:02;6.00;99.90
18777;DHT22;9517;51.174;4.160;2024-03-23T03:34:28;6.00;99.90
18777;DHT22;9517;51.174;4.160;2024-03-23T03:36:56;6.10;99.90
18777;DHT22;9517;51.174;4.160;2024-03-23T03:39:22;6.10;99.90
18777;DHT22;9517;51.174;4.160;2024-03-23T03:41:49;6.10;99.90
18777;DHT22;9517;51.174;4.160;2024-03-23T03:44:15;6.10;99.90
18777;DHT22;9517;51.174;4.160;2024-03-23T03:46:42;6.10;99.90
18777;DHT22;9517;51.174;4.160;2024-03-23T03:49:10;6.20;99.90
18777;DHT22;9517;51.174;4.160;2024-03-23T03:51:37;6.40;99.90
18777;DHT22;9517;51.174;4.160;2024-03-23T03:54:03;6.30;99.90
18777;DHT22;9517;51.174;4.160;2024-03-23T03:56:30;6.30;99.90
18777;DHT22;9517;51.174;4.160;2024-03-23T03:58:56;6.40;99.90
18777;DHT22;9517;51.174;4.160;2024-03-23T04:01:23;6.40;99.90
18777;DHT22;9517;51.174;4.160;2024-03-23T04:03:49;6.40;99.90
18777;DHT22;9517;51.174;4.160;2024-03-23T04:06:20;6.40;99.90
18777;DHT22;9517;51.174;4.160;2024-03-23T04:08:46;6.50;99.90
18777;DHT22;9517;51.174;4.160;2024-03-23T04:11:13;6.50;99.90
18777;DHT22;9517;51.174;4.160;2024-03-23T04:13:39;6.50;99.90
18777;DHT22;9517;51.174;4.160;2024-03-23T04:16:07;6.50;99.90
18777;DHT22;9517;51.174;4.160;2024-03-23T04:18:34;6.40;99.90
18777;DHT22;9517;51.174;4.160;2024-03-23T04:21:01;6.30;99.90
18777;DHT22;9517;51.174;4.160;2024-03-23T04:23:29;6.30;99.90
18777;DHT22;9517;51.174;4.160;2024-03-23T04:26:03;6.30;99.90
18777;DHT22;9517;51.174;4.160;2024-03-23T04:28:29;6.30;99.90
18777;DHT22;9517;51.174;4.160;2024-03-23T04:30:56;6.30;99.90
18777;DHT22;9517;51.174;4.160;2024-03-23T04:33:22;6.30;99.90
18777;DHT22;9517;51.174;4.160;2024-03-23T04:35:49;6.30;99.90
18777;DHT22;9517;51.174;4.160;2024-03-23T04:38:15;6.30;99.90
18777;DHT22;9517;51.174;4.160;2024-03-23T04:40:43;6.30;99.90
18777;DHT22;9517;51.174;4.160;2024-03-23T04:43:10;6.30;99.90
18777;DHT22;9517;51.174;4.160;2024-03-23T04:45:37;6.20;99.90
18777;DHT22;9517;51.174;4.160;2024-03-23T04:48:05;6.10;99.90
18777;DHT22;9517;51.174;4.160;2024-03-23T04:50:32;6.10;99.90
18777;DHT22;9517;51.174;4.160;2024-03-23T04:52:59;6.10;99.90
18777;DHT22;9517;51.174;4.160;2024-03-23T04:55:26;6.00;99.90
18777;DHT22;9517;51.174;4.160;2024-03-23T04:57:55;6.10;99.90
18777;DHT22;9517;51.174;4.160;2024-03-23T05:00:21;6.00;99.90
18777;DHT22;9517;51.174;4.160;2024-03-23T05:02:48;6.00;99.90
18777;DHT22;9517;51.174;4.160;2024-03-23T05:05:16;6.10;99.90
18777;DHT22;9517;51.174;4.160;2024-03-23T05:07:42;6.10;99.90
18777;DHT22;9517;51.174;4.160;2024-03-23T05:10:10;6.10;99.90
18777;DHT22;9517;51.174;4.160;2024-03-23T05:12:36;6.10;99.90
18777;DHT22;9517;51.174;4.160;2024-03-23T05:15:05;6.10;99.90
18777;DHT22;9517;51.174;4.160;2024-03-23T05:17:32;6.10;99.90
18777;DHT22;9517;51.174;4.160;2024-03-23T05:19:59;6.10;99.90
18777;DHT22;9517;51.174;4.160;2024-03-23T05:22:25;6.10;99.90
18777;DHT22;9517;51.174;4.160;2024-03-23T05:24:52;6.10;99.90
18777;DHT22;9517;51.174;4.160;2024-03-23T05:27:18;6.20;99.90
18777;DHT22;9517;51.174;4.160;2024-03-23T05:29:45;6.30;99.90
18777;DHT22;9517;51.174;4.160;2024-03-23T05:32:14;6.30;99.90
18777;DHT22;9517;51.174;4.160;2024-03-23T05:34:41;6.40;99.90
18777;DHT22;9517;51.174;4.160;2024-03-23T05:37:07;6.50;99.90
18777;DHT22;9517;51.174;4.160;2024-03-23T05:39:34;6.50;99.90
18777;DHT22;9517;51.174;4.160;2024-03-23T05:42:00;6.40;99.90
18777;DHT22;9517;51.174;4.160;2024-03-23T05:44:28;6.40;99.90
18777;DHT22;9517;51.174;4.160;2024-03-23T05:46:57;6.40;99.90
18777;DHT22;9517;51.174;4.160;2024-03-23T05:49:25;6.30;99.90
18777;DHT22;9517;51.174;4.160;2024-03-23T05:51:51;6.40;99.90
18777;DHT22;9517;51.174;4.160;2024-03-23T05:54:21;6.40;99.90
18777;DHT22;9517;51.174;4.160;2024-03-23T05:56:47;6.40;99.90
18777;DHT22;9517;51.174;4.160;2024-03-23T05:59:14;6.40;99.90
18777;DHT22;9517;51.174;4.160;2024-03-23T06:01:40;6.30;99.90
18777;DHT22;9517;51.174;4.160;2024-03-23T06:04:07;6.30;99.90
18777;DHT22;9517;51.174;4.160;2024-03-23T06:06:35;6.30;99.90
18777;DHT22;9517;51.174;4.160;2024-03-23T06:09:02;6.30;99.90
18777;DHT22;9517;51.174;4.160;2024-03-23T06:11:29;6.20;99.90
18777;DHT22;9517;51.174;4.160;2024-03-23T06:13:56;6.20;99.90
18777;DHT22;9517;51.174;4.160;2024-03-23T06:16:21;6.20;99.90
18777;DHT22;9517;51.174;4.160;2024-03-23T06:18:50;6.10;99.90
18777;DHT22;9517;51.174;4.160;2024-03-23T06:21:16;6.10;99.90
18777;DHT22;9517;51.174;4.160;2024-03-23T06:23:47;6.20;99.90
18777;DHT22;9517;51.174;4.160;2024-03-23T06:26:16;6.30;99.90
18777;DHT22;9517;51.174;4.160;2024-03-23T06:28:43;6.30;99.90
18777;DHT22;9517;51.174;4.160;2024-03-23T06:31:09;6.40;99.90
18777;DHT22;9517;51.174;4.160;2024-03-23T06:33:36;6.30;99.90
18777;DHT22;9517;51.174;4.160;2024-03-23T06:36:03;6.40;99.90
18777;DHT22;9517;51.174;4.160;2024-03-23T06:38:30;6.40;99.90
18777;DHT22;9517;51.174;4.160;2024-03-23T06:40:58;6.50;99.90
18777;DHT22;9517;51.174;4.160;2024-03-23T06:43:28;6.50;99.90
18777;DHT22;9517;51.174;4.160;2024-03-23T06:45:54;6.60;99.90
18777;DHT22;9517;51.174;4.160;2024-03-23T06:48:22;6.80;99.90
18777;DHT22;9517;51.174;4.160;2024-03-23T06:51:05;6.90;99.90
18777;DHT22;9517;51.174;4.160;2024-03-23T06:53:34;7.10;99.90
18777;DHT22;9517;51.174;4.160;2024-03-23T06:56:02;7.30;99.90
18777;DHT22;9517;51.174;4.160;2024-03-23T06:58:29;7.40;99.90
18777;DHT22;9517;51.174;4.160;2024-03-23T07:00:55;7.50;99.90
18777;DHT22;9517;51.174;4.160;2024-03-23T07:03:22;7.60;99.90
18777;DHT22;9517;51.174;4.160;2024-03-23T07:05:51;7.60;99.90
18777;DHT22;9517;51.174;4.160;2024-03-23T07:08:19;7.60;99.90
18777;DHT22;9517;51.174;4.160;2024-03-23T07:14:39;7.50;99.90
18777;DHT22;9517;51.174;4.160;2024-03-23T07:17:06;7.40;99.90
18777;DHT22;9517;51.174;4.160;2024-03-23T07:19:50;7.30;99.90
18777;DHT22;9517;51.174;4.160;2024-03-23T07:22:17;7.50;99.90
18777;DHT22;9517;51.174;4.160;2024-03-23T07:24:44;7.60;99.90
18777;DHT22;9517;51.174;4.160;2024-03-23T07:27:20;7.70;99.90
18777;DHT22;9517;51.174;4.160;2024-03-23T07:29:47;7.70;99.90
18777;DHT22;9517;51.174;4.160;2024-03-23T07:32:14;7.90;99.90
18777;DHT22;9517;51.174;4.160;2024-03-23T07:34:40;7.90;99.90
18777;DHT22;9517;51.174;4.160;2024-03-23T07:37:09;7.90;99.90
18777;DHT22;9517;51.174;4.160;2024-03-23T07:39:35;8.00;99.90
18777;DHT22;9517;51.174;4.160;2024-03-23T07:42:02;8.10;99.90
18777;DHT22;9517;51.174;4.160;2024-03-23T07:44:28;8.20;99.90
18777;DHT22;9517;51.174;4.160;2024-03-23T07:46:58;8.20;99.90
18777;DHT22;9517;51.174;4.160;2024-03-23T07:49:24;8.10;99.90
18777;DHT22;9517;51.174;4.160;2024-03-23T07:51:51;8.00;99.90
18777;DHT22;9517;51.174;4.160;2024-03-23T07:54:17;7.90;99.90
18777;DHT22;9517;51.174;4.160;2024-03-23T07:56:44;8.00;99.90
18777;DHT22;9517;51.174;4.160;2024-03-23T07:59:10;8.10;99.90
18777;DHT22;9517;51.174;4.160;2024-03-23T08:01:37;8.30;99.90
18777;DHT22;9517;51.174;4.160;2024-03-23T08:04:05;8.50;99.90
18777;DHT22;9517;51.174;4.160;2024-03-23T08:06:32;8.50;99.90
18777;DHT22;9517;51.174;4.160;2024-03-23T08:08:58;8.60;99.90
18777;DHT22;9517;51.174;4.160;2024-03-23T08:11:29;8.40;99.90
18777;DHT22;9517;51.174;4.160;2024-03-23T08:14:00;8.40;99.90
18777;DHT22;9517;51.174;4.160;2024-03-23T08:16:28;8.40;99.90
18777;DHT22;9517;51.174;4.160;2024-03-23T08:18:54;8.50;99.90
18777;DHT22;9517;51.174;4.160;2024-03-23T08:21:22;8.50;99.90
18777;DHT22;9517;51.174;4.160;2024-03-23T08:23:48;8.40;99.90
18777;DHT22;9517;51.174;4.160;2024-03-23T08:26:16;8.50;99.90
18777;DHT22;9517;51.174;4.160;2024-03-23T08:28:43;8.30;99.90
18777;DHT22;9517;51.174;4.160;2024-03-23T08:31:11;8.20;99.90
18777;DHT22;9517;51.174;4.160;2024-03-23T08:33:38;8.30;99.90
18777;DHT22;9517;51.174;4.160;2024-03-23T08:36:06;8.20;99.90
18777;DHT22;9517;51.174;4.160;2024-03-23T08:38:34;8.30;99.90
18777;DHT22;9517;51.174;4.160;2024-03-23T08:41:02;8.40;99.90
18777;DHT22;9517;51.174;4.160;2024-03-23T08:43:29;8.30;99.90
18777;DHT22;9517;51.174;4.160;2024-03-23T08:46:03;8.40;99.90
18777;DHT22;9517;51.174;4.160;2024-03-23T08:48:30;8.60;99.90
18777;DHT22;9517;51.174;4.160;2024-03-23T08:51:01;8.50;99.90
18777;DHT22;9517;51.174;4.160;2024-03-23T08:53:28;8.40;99.90
18777;DHT22;9517;51.174;4.160;2024-03-23T08:55:57;8.50;99.90
18777;DHT22;9517;51.174;4.160;2024-03-23T08:58:25;8.70;99.90
18777;DHT22;9517;51.174;4.160;2024-03-23T09:00:52;9.00;99.90
18777;DHT22;9517;51.174;4.160;2024-03-23T09:03:18;9.30;99.90
18777;DHT22;9517;51.174;4.160;2024-03-23T09:05:45;9.80;99.90
18777;DHT22;9517;51.174;4.160;2024-03-23T09:08:11;9.80;99.90
18777;DHT22;9517;51.174;4.160;2024-03-23T09:10:39;9.60;99.90
18777;DHT22;9517;51.174;4.160;2024-03-23T09:13:07;9.10;99.90
18777;DHT22;9517;51.174;4.160;2024-03-23T09:15:34;8.80;99.90
18777;DHT22;9517;51.174;4.160;2024-03-23T09:18:01;8.70;99.90
18777;DHT22;9517;51.174;4.160;2024-03-23T09:20:28;8.60;99.90
18777;DHT22;9517;51.174;4.160;2024-03-23T09:22:55;8.40;99.90
18777;DHT22;9517;51.174;4.160;2024-03-23T09:25:21;7.60;99.90
18777;DHT22;9517;51.174;4.160;2024-03-23T09:27:48;7.10;99.90
18777;DHT22;9517;51.174;4.160;2024-03-23T09:30:16;6.80;99.90
18777;DHT22;9517;51.174;4.160;2024-03-23T09:32:44;6.70;99.90
18777;DHT22;9517;51.174;4.160;2024-03-23T09:35:11;6.70;99.90
18777;DHT22;9517;51.174;4.160;2024-03-23T09:37:38;6.90;99.90
18777;DHT22;9517;51.174;4.160;2024-03-23T09:40:06;7.00;99.90
18777;DHT22;9517;51.174;4.160;2024-03-23T09:42:36;7.00;99.90
18777;DHT22;9517;51.174;4.160;2024-03-23T09:45:02;7.00;99.90
18777;DHT22;9517;51.174;4.160;2024-03-23T09:47:33;7.00;99.90
18777;DHT22;9517;51.174;4.160;2024-03-23T09:50:00;6.90;99.90
18777;DHT22;9517;51.174;4.160;2024-03-23T09:52:27;6.90;99.90
18777;DHT22;9517;51.174;4.160;2024-03-23T09:54:53;6.90;99.90
18777;DHT22;9517;51.174;4.160;2024-03-23T09:57:20;6.90;99.90
18777;DHT22;9517;51.174;4.160;2024-03-23T09:59:46;7.30;99.90
18777;DHT22;9517;51.174;4.160;2024-03-23T10:02:15;7.80;99.90
18777;DHT22;9517;51.174;4.160;2024-03-23T10:04:44;8.50;99.90
18777;DHT22;9517;51.174;4.160;2024-03-23T10:07:11;8.90;99.90
18777;DHT22;9517;51.174;4.160;2024-03-23T10:09:38;9.10;99.90
18777;DHT22;9517;51.174;4.160;2024-03-23T10:12:09;9.10;99.90
18777;DHT22;9517;51.174;4.160;2024-03-23T10:14:36;8.80;99.90
18777;DHT22;9517;51.174;4.160;2024-03-23T10:17:14;8.20;99.90
18777;DHT22;9517;51.174;4.160;2024-03-23T10:19:41;7.80;99.90
18777;DHT22;9517;51.174;4.160;2024-03-23T10:22:16;7.20;99.90
18777;DHT22;9517;51.174;4.160;2024-03-23T10:24:43;6.80;99.90
18777;DHT22;9517;51.174;4.160;2024-03-23T10:27:10;6.60;99.90
18777;DHT22;9517;51.174;4.160;2024-03-23T10:29:40;6.60;99.90
18777;DHT22;9517;51.174;4.160;2024-03-23T10:32:08;6.80;99.90
18777;DHT22;9517;51.174;4.160;2024-03-23T10:34:35;7.50;99.90
18777;DHT22;9517;51.174;4.160;2024-03-23T10:37:03;8.40;99.90
18777;DHT22;9517;51.174;4.160;2024-03-23T10:39:33;9.10;99.90
18777;DHT22;9517;51.174;4.160;2024-03-23T10:42:02;9.60;99.90
18777;DHT22;9517;51.174;4.160;2024-03-23T10:44:29;9.90;99.90
18777;DHT22;9517;51.174;4.160;2024-03-23T10:46:58;9.70;99.90
18777;DHT22;9517;51.174;4.160;2024-03-23T10:49:28;9.70;99.90
18777;DHT22;9517;51.174;4.160;2024-03-23T10:51:57;9.60;99.90
18777;DHT22;9517;51.174;4.160;2024-03-23T10:54:24;9.50;99.90
18777;DHT22;9517;51.174;4.160;2024-03-23T10:56:58;9.30;99.90
18777;DHT22;9517;51.174;4.160;2024-03-23T10:59:25;9.00;99.90
18777;DHT22;9517;51.174;4.160;2024-03-23T11:01:56;8.70;99.90
18777;DHT22;9517;51.174;4.160;2024-03-23T11:04:36;8.60;99.90
18777;DHT22;9517;51.174;4.160;2024-03-23T11:07:30;8.80;99.90
18777;DHT22;9517;51.174;4.160;2024-03-23T11:09:57;9.10;99.90
18777;DHT22;9517;51.174;4.160;2024-03-23T11:12:30;9.10;99.90
18777;DHT22;9517;51.174;4.160;2024-03-23T11:15:01;9.00;99.90
18777;DHT22;9517;51.174;4.160;2024-03-23T11:17:28;8.90;99.90
18777;DHT22;9517;51.174;4.160;2024-03-23T11:19:56;9.70;99.90
18777;DHT22;9517;51.174;4.160;2024-03-23T11:22:40;10.90;99.90
18777;DHT22;9517;51.174;4.160;2024-03-23T11:25:17;11.90;99.90
18777;DHT22;9517;51.174;4.160;2024-03-23T11:27:48;11.90;99.90
18777;DHT22;9517;51.174;4.160;2024-03-23T11:30:16;11.80;99.90
18777;DHT22;9517;51.174;4.160;2024-03-23T11:32:44;12.20;99.90
18777;DHT22;9517;51.174;4.160;2024-03-23T11:35:11;11.80;99.90
18777;DHT22;9517;51.174;4.160;2024-03-23T11:38:02;10.70;99.90
18777;DHT22;9517;51.174;4.160;2024-03-23T11:40:28;9.60;99.90
18777;DHT22;9517;51.174;4.160;2024-03-23T11:42:58;9.30;99.90
18777;DHT22;9517;51.174;4.160;2024-03-23T11:45:24;9.00;99.90
18777;DHT22;9517;51.174;4.160;2024-03-23T11:48:02;9.50;99.90
18777;DHT22;9517;51.174;4.160;2024-03-23T11:50:28;11.00;99.90
18777;DHT22;9517;51.174;4.160;2024-03-23T11:53:07;12.40;99.90
18777;DHT22;9517;51.174;4.160;2024-03-23T11:55:39;12.60;99.90
18777;DHT22;9517;51.174;4.160;2024-03-23T11:58:08;12.90;99.90
18777;DHT22;9517;51.174;4.160;2024-03-23T12:00:34;11.80;99.90
18777;DHT22;9517;51.174;4.160;2024-03-23T12:03:02;10.40;99.90
18777;DHT22;9517;51.174;4.160;2024-03-23T12:05:28;9.70;99.90
18777;DHT22;9517;51.174;4.160;2024-03-23T12:10:37;9.30;99.90
18777;DHT22;9517;51.174;4.160;2024-03-23T12:13:04;9.50;99.90
18777;DHT22;9517;51.174;4.160;2024-03-23T12:15:31;9.50;99.90
18777;DHT22;9517;51.174;4.160;2024-03-23T12:18:07;9.70;99.90
18777;DHT22;9517;51.174;4.160;2024-03-23T12:20:33;9.60;99.90
18777;DHT22;9517;51.174;4.160;2024-03-23T12:23:10;9.60;99.90
18777;DHT22;9517;51.174;4.160;2024-03-23T12:25:38;11.00;99.90
18777;DHT22;9517;51.174;4.160;2024-03-23T12:28:05;12.30;99.90
18777;DHT22;9517;51.174;4.160;2024-03-23T12:30:39;12.80;99.90
18777;DHT22;9517;51.174;4.160;2024-03-23T12:33:05;12.90;99.90
18777;DHT22;9517;51.174;4.160;2024-03-23T12:35:33;13.90;99.90
18777;DHT22;9517;51.174;4.160;2024-03-23T12:37:59;13.80;99.90
18777;DHT22;9517;51.174;4.160;2024-03-23T12:40:27;13.60;99.90
18777;DHT22;9517;51.174;4.160;2024-03-23T12:42:53;13.30;99.90
18777;DHT22;9517;51.174;4.160;2024-03-23T12:45:21;12.10;99.90
18777;DHT22;9517;51.174;4.160;2024-03-23T12:47:49;11.20;99.90
18777;DHT22;9517;51.174;4.160;2024-03-23T12:50:18;10.80;99.90
18777;DHT22;9517;51.174;4.160;2024-03-23T12:52:44;10.20;99.90
18777;DHT22;9517;51.174;4.160;2024-03-23T12:55:11;9.90;99.90
18777;DHT22;9517;51.174;4.160;2024-03-23T12:57:37;9.60;99.90
18777;DHT22;9517;51.174;4.160;2024-03-23T13:00:04;9.60;99.90
18777;DHT22;9517;51.174;4.160;2024-03-23T13:02:32;9.20;99.90
18777;DHT22;9517;51.174;4.160;2024-03-23T13:05:02;8.40;99.90
18777;DHT22;9517;51.174;4.160;2024-03-23T13:07:28;7.80;99.90
18777;DHT22;9517;51.174;4.160;2024-03-23T13:09:55;7.60;99.90
18777;DHT22;9517;51.174;4.160;2024-03-23T13:12:22;7.30;99.90
18777;DHT22;9517;51.174;4.160;2024-03-23T13:14:49;6.70;99.90
18777;DHT22;9517;51.174;4.160;2024-03-23T13:17:15;6.30;99.90
18777;DHT22;9517;51.174;4.160;2024-03-23T13:19:42;6.10;99.90
18777;DHT22;9517;51.174;4.160;2024-03-23T13:22:10;5.90;99.90
18777;DHT22;9517;51.174;4.160;2024-03-23T13:24:38;5.80;99.90
18777;DHT22;9517;51.174;4.160;2024-03-23T13:27:04;5.90;99.90
18777;DHT22;9517;51.174;4.160;2024-03-23T13:29:33;6.10;99.90
18777;DHT22;9517;51.174;4.160;2024-03-23T13:32:01;7.30;99.90
18777;DHT22;9517;51.174;4.160;2024-03-23T13:34:29;9.20;99.90
18777;DHT22;9517;51.174;4.160;2024-03-23T13:36:55;10.60;99.90
18777;DHT22;9517;51.174;4.160;2024-03-23T13:39:25;11.60;99.90
18777;DHT22;9517;51.174;4.160;2024-03-23T13:41:53;11.40;99.90
18777;DHT22;9517;51.174;4.160;2024-03-23T13:44:21;10.50;99.90
18777;DHT22;9517;51.174;4.160;2024-03-23T13:46:48;10.10;99.90
18777;DHT22;9517;51.174;4.160;2024-03-23T13:49:24;10.30;99.90
18777;DHT22;9517;51.174;4.160;2024-03-23T13:51:52;10.80;99.90
18777;DHT22;9517;51.174;4.160;2024-03-23T13:54:18;12.00;99.90
18777;DHT22;9517;51.174;4.160;2024-03-23T13:56:48;12.80;99.90
18777;DHT22;9517;51.174;4.160;2024-03-23T13:59:14;13.10;99.90
18777;DHT22;9517;51.174;4.160;2024-03-23T14:01:42;13.20;99.90
18777;DHT22;9517;51.174;4.160;2024-03-23T14:04:08;13.90;99.90
18777;DHT22;9517;51.174;4.160;2024-03-23T14:06:36;14.00;99.90
18777;DHT22;9517;51.174;4.160;2024-03-23T14:09:02;14.40;99.90
18777;DHT22;9517;51.174;4.160;2024-03-23T14:11:30;13.80;99.90
18777;DHT22;9517;51.174;4.160;2024-03-23T14:13:58;13.30;99.90
18777;DHT22;9517;51.174;4.160;2024-03-23T14:16:25;13.40;99.90
18777;DHT22;9517;51.174;4.160;2024-03-23T14:18:51;13.80;99.90
18777;DHT22;9517;51.174;4.160;2024-03-23T14:21:19;13.80;99.90
18777;DHT22;9517;51.174;4.160;2024-03-23T14:23:45;13.00;99.90
18777;DHT22;9517;51.174;4.160;2024-03-23T14:26:12;12.10;99.90
18777;DHT22;9517;51.174;4.160;2024-03-23T14:28:38;11.40;99.90
18777;DHT22;9517;51.174;4.160;2024-03-23T14:31:06;10.80;99.90
18777;DHT22;9517;51.174;4.160;2024-03-23T14:33:36;10.60;99.90
18777;DHT22;9517;51.174;4.160;2024-03-23T14:36:04;10.60;99.90
18777;DHT22;9517;51.174;4.160;2024-03-23T14:38:30;10.50;99.90
18777;DHT22;9517;51.174;4.160;2024-03-23T14:40:58;10.30;99.90
18777;DHT22;9517;51.174;4.160;2024-03-23T14:43:25;10.00;99.90
18777;DHT22;9517;51.174;4.160;2024-03-23T14:46:09;9.80;99.90
18777;DHT22;9517;51.174;4.160;2024-03-23T14:48:36;9.70;99.90
18777;DHT22;9517;51.174;4.160;2024-03-23T14:51:04;9.50;99.90
18777;DHT22;9517;51.174;4.160;2024-03-23T14:53:31;9.40;99.90
18777;DHT22;9517;51.174;4.160;2024-03-23T14:55:58;9.40;99.90
18777;DHT22;9517;51.174;4.160;2024-03-23T14:58:25;9.40;99.90
18777;DHT22;9517;51.174;4.160;2024-03-23T15:00:53;9.40;99.90
18777;DHT22;9517;51.174;4.160;2024-03-23T15:03:20;9.60;99.90
18777;DHT22;9517;51.174;4.160;2024-03-23T15:05:54;9.80;99.90
18777;DHT22;9517;51.174;4.160;2024-03-23T15:08:21;9.70;99.90
18777;DHT22;9517;51.174;4.160;2024-03-23T15:10:48;9.70;99.90
18777;DHT22;9517;51.174;4.160;2024-03-23T15:13:14;9.70;99.90
18777;DHT22;9517;51.174;4.160;2024-03-23T15:15:41;10.00;99.90
18777;DHT22;9517;51.174;4.160;2024-03-23T15:18:10;10.50;99.90
18777;DHT22;9517;51.174;4.160;2024-03-23T15:20:53;10.70;99.90
18777;DHT22;9517;51.174;4.160;2024-03-23T15:23:19;11.30;99.90
18777;DHT22;9517;51.174;4.160;2024-03-23T15:25:53;12.10;99.90
18777;DHT22;9517;51.174;4.160;2024-03-23T15:28:19;12.20;99.90
18777;DHT22;9517;51.174;4.160;2024-03-23T15:30:46;12.80;99.90
18777;DHT22;9517;51.174;4.160;2024-03-23T15:33:18;13.10;99.90
18777;DHT22;9517;51.174;4.160;2024-03-23T15:35:48;13.40;99.90
18777;DHT22;9517;51.174;4.160;2024-03-23T15:38:15;13.50;99.90
18777;DHT22;9517;51.174;4.160;2024-03-23T15:40:51;13.90;99.90
18777;DHT22;9517;51.174;4.160;2024-03-23T15:43:17;14.40;99.90
18777;DHT22;9517;51.174;4.160;2024-03-23T15:45:44;13.90;99.90
18777;DHT22;9517;51.174;4.160;2024-03-23T15:48:10;13.70;99.90
18777;DHT22;9517;51.174;4.160;2024-03-23T15:50:37;13.40;99.90
18777;DHT22;9517;51.174;4.160;2024-03-23T15:53:04;13.10;99.90
18777;DHT22;9517;51.174;4.160;2024-03-23T15:55:31;13.10;99.90
18777;DHT22;9517;51.174;4.160;2024-03-23T15:58:01;13.10;99.90
18777;DHT22;9517;51.174;4.160;2024-03-23T16:00:27;13.40;99.90
18777;DHT22;9517;51.174;4.160;2024-03-23T16:02:54;13.30;99.90
18777;DHT22;9517;51.174;4.160;2024-03-23T16:05:20;13.10;99.90
18777;DHT22;9517;51.174;4.160;2024-03-23T16:07:47;13.30;99.90
18777;DHT22;9517;51.174;4.160;2024-03-23T16:10:13;13.00;99.90
18777;DHT22;9517;51.174;4.160;2024-03-23T16:12:45;12.90;99.90
18777;DHT22;9517;51.174;4.160;2024-03-23T16:15:14;12.90;99.90
18777;DHT22;9517;51.174;4.160;2024-03-23T16:17:41;12.70;99.90
18777;DHT22;9517;51.174;4.160;2024-03-23T16:20:08;12.70;99.90
18777;DHT22;9517;51.174;4.160;2024-03-23T16:22:35;12.60;99.90
18777;DHT22;9517;51.174;4.160;2024-03-23T16:25:01;12.40;99.90
18777;DHT22;9517;51.174;4.160;2024-03-23T16:27:29;12.40;99.90
18777;DHT22;9517;51.174;4.160;2024-03-23T16:29:56;12.10;99.90
18777;DHT22;9517;51.174;4.160;2024-03-23T16:32:24;11.40;99.90
18777;DHT22;9517;51.174;4.160;2024-03-23T16:34:50;10.70;99.90
18777;DHT22;9517;51.174;4.160;2024-03-23T16:37:17;10.80;99.90
18777;DHT22;9517;51.174;4.160;2024-03-23T16:39:43;11.00;99.90
18777;DHT22;9517;51.174;4.160;2024-03-23T16:42:10;11.30;99.90
18777;DHT22;9517;51.174;4.160;2024-03-23T16:44:36;11.20;99.90
18777;DHT22;9517;51.174;4.160;2024-03-23T16:47:06;11.50;99.90
18777;DHT22;9517;51.174;4.160;2024-03-23T16:49:33;11.60;99.90
18777;DHT22;9517;51.174;4.160;2024-03-23T16:52:00;11.10;99.90
18777;DHT22;9517;51.174;4.160;2024-03-23T16:54:26;10.60;99.90
18777;DHT22;9517;51.174;4.160;2024-03-23T16:56:54;10.40;99.90
18777;DHT22;9517;51.174;4.160;2024-03-23T16:59:20;9.80;99.90